Time;durP1;ratioP1;P1;durP2;ratioP2;P2;SDS_P1;SDS_P2;PMS_P1;PMS_P2;Temp;Humidity;BMP_temperature;BMP_pressure;BME280_temperature;BME280_humidity;BME280_pressure;Samples;Min_cycle;Max_cycle;Signal;HPM_P1;HPM_P2
2023/12/26 00:01:57;;;;;;;1.85;1.15;;;;;;;;;;5051656;28;20040;-67
2023/12/26 00:04:23;;;;;;;2.33;0.90;;;;;;;;;;5052682;28;20070;-67
2023/12/26 00:06:49;;;;;;;0.82;0.60;;;;;;;;;;5053028;28;20123;-66
2023/12/26 00:09:16;;;;;;;1.00;0.70;;;;;;;;;;5044804;28;20037;-66
2023/12/26 00:11:43;;;;;;;1.45;0.82;;;;;;;;;;5051804;28;20501;-67
2023/12/26 00:14:09;;;;;;;0.85;0.68;;;;;;;;;;5050488;28;20040;-67
2023/12/26 00:16:35;;;;;;;2.10;0.90;;;;;;;;;;5036675;28;20083;-67
2023/12/26 00:19:01;;;;;;;2.28;1.00;;;;;;;;;;5052638;28;20036;-67
2023/12/26 00:21:27;;;;;;;3.42;0.90;;;;;;;;;;5053026;28;20119;-67
2023/12/26 00:23:53;;;;;;;0.80;0.80;;;;;;;;;;5052129;28;20040;-67
2023/12/26 00:26:19;;;;;;;0.82;0.73;;;;;;;;;;5050862;28;20561;-67
2023/12/26 00:28:45;;;;;;;0.75;0.68;;;;;;;;;;5069307;28;20041;-67
2023/12/26 00:31:12;;;;;;;1.67;0.70;;;;;;;;;;5052071;28;20093;-67
2023/12/26 00:33:38;;;;;;;1.50;0.90;;;;;;;;;;5052599;28;20045;-66
2023/12/26 00:36:04;;;;;;;0.95;0.65;;;;;;;;;;5053028;28;20043;-66
2023/12/26 00:38:30;;;;;;;1.13;0.60;;;;;;;;;;5065195;28;20037;-66
2023/12/26 00:40:56;;;;;;;1.00;0.55;;;;;;;;;;5050362;28;20150;-66
2023/12/26 00:43:22;;;;;;;1.00;0.50;;;;;;;;;;5050781;28;20428;-66
2023/12/26 00:45:48;;;;;;;0.75;0.50;;;;;;;;;;5069793;28;20109;-66
2023/12/26 00:48:14;;;;;;;0.70;0.40;;;;;;;;;;5048908;28;20045;-66
2023/12/26 00:50:41;;;;;;;0.40;0.40;;;;;;;;;;5066551;28;20516;-66
2023/12/26 00:53:10;;;;;;;1.02;0.50;;;;;;;;;;5069693;28;20472;-66
2023/12/26 00:55:37;;;;;;;1.10;0.52;;;;;;;;;;5034942;28;20044;-66
2023/12/26 00:58:03;;;;;;;0.60;0.40;;;;;;;;;;5067344;28;20510;-65
2023/12/26 01:00:29;;;;;;;1.85;0.40;;;;;;;;;;5068788;28;20074;-67
2023/12/26 01:02:55;;;;;;;0.50;0.30;;;;;;;;;;5052167;28;20527;-66
2023/12/26 01:05:21;;;;;;;1.02;0.30;;;;;;;;;;5051774;28;20048;-66
2023/12/26 01:07:47;;;;;;;1.45;0.40;;;;;;;;;;5068553;28;20040;-66
2023/12/26 01:10:13;;;;;;;1.50;0.50;;;;;;;;;;5050229;28;20102;-66
2023/12/26 01:12:39;;;;;;;1.23;0.20;;;;;;;;;;5051604;28;20036;-67
2023/12/26 01:15:05;;;;;;;0.75;0.30;;;;;;;;;;5050536;28;20047;-66
2023/12/26 01:17:31;;;;;;;0.60;0.20;;;;;;;;;;5070927;28;20070;-67
2023/12/26 01:19:58;;;;;;;1.75;0.30;;;;;;;;;;5050585;28;20056;-67
2023/12/26 01:22:24;;;;;;;1.17;0.40;;;;;;;;;;5047863;28;20040;-66
2023/12/26 01:24:53;;;;;;;1.17;0.40;;;;;;;;;;5051890;28;20663;-66
2023/12/26 01:27:19;;;;;;;0.52;0.20;;;;;;;;;;5068859;28;20403;-66
2023/12/26 01:29:45;;;;;;;2.03;0.45;;;;;;;;;;5068380;28;20041;-66
2023/12/26 01:32:11;;;;;;;1.00;0.30;;;;;;;;;;5051021;28;20435;-66
2023/12/26 01:34:37;;;;;;;2.22;0.30;;;;;;;;;;5065437;28;20045;-66
2023/12/26 01:37:03;;;;;;;2.67;0.40;;;;;;;;;;5052051;28;20040;-66
2023/12/26 01:39:29;;;;;;;1.13;0.43;;;;;;;;;;5051047;28;20048;-66
2023/12/26 01:41:55;;;;;;;1.27;0.32;;;;;;;;;;5051504;28;20500;-65
2023/12/26 01:44:21;;;;;;;2.58;0.40;;;;;;;;;;5030736;28;20036;-65
2023/12/26 01:46:47;;;;;;;1.45;0.40;;;;;;;;;;5051951;28;20052;-65
2023/12/26 01:49:13;;;;;;;1.35;0.50;;;;;;;;;;5051280;28;20119;-65
2023/12/26 01:51:42;;;;;;;2.17;0.47;;;;;;;;;;5070397;28;20043;-65
2023/12/26 01:54:08;;;;;;;2.47;0.60;;;;;;;;;;5049056;28;20041;-65
2023/12/26 01:56:34;;;;;;;3.42;0.50;;;;;;;;;;5056010;28;20071;-65
2023/12/26 01:59:02;;;;;;;6.57;0.63;;;;;;;;;;5053997;28;20458;-65
2023/12/26 02:01:29;;;;;;;3.13;0.60;;;;;;;;;;5073428;28;20067;-65
2023/12/26 02:03:55;;;;;;;4.55;0.70;;;;;;;;;;5054597;28;20472;-65
2023/12/26 02:06:21;;;;;;;2.28;0.82;;;;;;;;;;5055311;28;20496;-65
2023/12/26 02:08:48;;;;;;;4.13;0.60;;;;;;;;;;5047871;28;20492;-65
2023/12/26 02:11:14;;;;;;;2.85;0.90;;;;;;;;;;5071708;28;20039;-65
2023/12/26 02:13:40;;;;;;;3.22;0.63;;;;;;;;;;5072932;28;20489;-65
2023/12/26 02:16:10;;;;;;;3.55;0.68;;;;;;;;;;5054661;28;20041;-65
2023/12/26 02:18:36;;;;;;;6.97;1.35;;;;;;;;;;5050416;28;20044;-65
2023/12/26 02:21:04;;;;;;;4.05;1.02;;;;;;;;;;5067281;28;20036;-68
2023/12/26 02:23:31;;;;;;;5.07;0.90;;;;;;;;;;5072901;28;20043;-65
2023/12/26 02:25:58;;;;;;;2.63;0.55;;;;;;;;;;5071785;28;20621;-65
2023/12/26 02:28:24;;;;;;;4.57;0.63;;;;;;;;;;5069891;28;20036;-65
2023/12/26 02:30:51;;;;;;;6.30;1.10;;;;;;;;;;5043399;28;20097;-65
2023/12/26 02:33:17;;;;;;;5.63;0.80;;;;;;;;;;5072394;28;20043;-65
2023/12/26 02:35:44;;;;;;;6.82;0.90;;;;;;;;;;5068464;28;20515;-65
2023/12/26 02:38:10;;;;;;;4.97;1.10;;;;;;;;;;5068780;28;20032;-65
2023/12/26 02:40:36;;;;;;;7.43;0.90;;;;;;;;;;5049786;28;20040;-66
2023/12/26 02:43:02;;;;;;;4.63;0.90;;;;;;;;;;5050148;28;20506;-65
2023/12/26 02:45:28;;;;;;;6.65;1.35;;;;;;;;;;5072090;28;20032;-65
2023/12/26 02:47:54;;;;;;;4.45;1.10;;;;;;;;;;5070882;28;20125;-65
2023/12/26 02:50:20;;;;;;;6.60;1.70;;;;;;;;;;5047664;28;20078;-65
2023/12/26 02:52:47;;;;;;;6.88;1.48;;;;;;;;;;5071120;28;20692;-65
2023/12/26 02:55:13;;;;;;;5.18;1.13;;;;;;;;;;5059687;28;20036;-65
2023/12/26 02:57:39;;;;;;;13.05;1.33;;;;;;;;;;5051916;28;20584;-65
2023/12/26 03:00:05;;;;;;;7.28;1.50;;;;;;;;;;5051457;28;20174;-65
2023/12/26 03:02:33;;;;;;;7.22;1.27;;;;;;;;;;5063414;28;20076;-65
2023/12/26 03:04:59;;;;;;;9.07;1.42;;;;;;;;;;5069945;28;20040;-65
2023/12/26 03:07:25;;;;;;;8.35;1.30;;;;;;;;;;5052005;28;20131;-65
2023/12/26 03:09:52;;;;;;;11.77;1.67;;;;;;;;;;5067585;28;20041;-65
2023/12/26 03:12:18;;;;;;;7.10;1.08;;;;;;;;;;5033220;28;20119;-65
2023/12/26 03:14:44;;;;;;;8.13;1.42;;;;;;;;;;5054375;28;20512;-65
2023/12/26 03:17:10;;;;;;;4.22;1.30;;;;;;;;;;5068612;28;20037;-65
2023/12/26 03:19:36;;;;;;;6.70;1.33;;;;;;;;;;5064734;28;20049;-65
2023/12/26 03:22:04;;;;;;;8.02;1.50;;;;;;;;;;5070803;28;20040;-66
2023/12/26 03:24:30;;;;;;;9.45;1.75;;;;;;;;;;5052122;28;20100;-65
2023/12/26 03:26:56;;;;;;;9.60;2.15;;;;;;;;;;5047661;28;20056;-65
2023/12/26 03:29:22;;;;;;;6.68;1.35;;;;;;;;;;5066567;28;20044;-65
2023/12/26 03:31:49;;;;;;;11.63;1.80;;;;;;;;;;5048248;28;20396;-65
2023/12/26 03:34:15;;;;;;;9.27;1.55;;;;;;;;;;5053112;28;20385;-65
2023/12/26 03:36:45;;;;;;;6.38;1.73;;;;;;;;;;5050415;28;20074;-65
2023/12/26 03:39:11;;;;;;;5.03;1.35;;;;;;;;;;5069685;28;20086;-65
2023/12/26 03:41:37;;;;;;;7.55;1.83;;;;;;;;;;5048221;28;20411;-65
2023/12/26 03:44:03;;;;;;;7.70;1.52;;;;;;;;;;5046444;28;20036;-65
2023/12/26 03:46:29;;;;;;;5.15;1.27;;;;;;;;;;5053355;28;20048;-65
2023/12/26 03:48:55;;;;;;;5.80;1.60;;;;;;;;;;5070406;28;20131;-66
2023/12/26 03:51:21;;;;;;;7.57;1.60;;;;;;;;;;5068185;28;20396;-65
2023/12/26 03:53:47;;;;;;;7.18;1.50;;;;;;;;;;5049407;28;20032;-65
2023/12/26 03:56:13;;;;;;;8.02;1.63;;;;;;;;;;5062829;28;20073;-65
2023/12/26 03:58:39;;;;;;;8.38;1.42;;;;;;;;;;5047279;28;20055;-65
2023/12/26 04:01:05;;;;;;;5.75;1.20;;;;;;;;;;5050154;28;20040;-65
2023/12/26 04:03:32;;;;;;;6.97;1.30;;;;;;;;;;5064814;28;20500;-65
2023/12/26 04:05:58;;;;;;;5.95;1.35;;;;;;;;;;5069860;28;20032;-65
2023/12/26 04:08:24;;;;;;;7.53;1.20;;;;;;;;;;5053552;28;20039;-66
2023/12/26 04:10:50;;;;;;;6.00;1.40;;;;;;;;;;5051856;28;20500;-65
2023/12/26 04:13:16;;;;;;;9.50;1.23;;;;;;;;;;5031543;28;20040;-65
2023/12/26 04:15:42;;;;;;;8.32;1.17;;;;;;;;;;5047992;28;20484;-65
2023/12/26 04:18:08;;;;;;;7.82;1.40;;;;;;;;;;5069932;28;20087;-65
2023/12/26 04:20:34;;;;;;;7.72;1.58;;;;;;;;;;5052334;28;20067;-65
2023/12/26 04:23:00;;;;;;;7.95;1.27;;;;;;;;;;5052243;28;20127;-65
2023/12/26 04:25:26;;;;;;;6.13;1.25;;;;;;;;;;5059827;28;20500;-65
2023/12/26 04:27:53;;;;;;;7.70;1.50;;;;;;;;;;5052821;28;20071;-65
2023/12/26 04:30:19;;;;;;;7.15;1.58;;;;;;;;;;5050437;28;20048;-65
2023/12/26 04:32:45;;;;;;;4.47;1.15;;;;;;;;;;5071097;28;20120;-65
2023/12/26 04:35:11;;;;;;;6.82;1.70;;;;;;;;;;5045075;28;20177;-65
2023/12/26 04:37:37;;;;;;;7.35;1.42;;;;;;;;;;5052207;28;20546;-66
2023/12/26 04:40:04;;;;;;;8.70;1.90;;;;;;;;;;5070788;28;20044;-65
2023/12/26 04:42:30;;;;;;;9.23;1.55;;;;;;;;;;5068975;28;20068;-66
2023/12/26 04:44:56;;;;;;;9.73;1.88;;;;;;;;;;5051376;28;20076;-65
2023/12/26 04:47:22;;;;;;;10.85;2.15;;;;;;;;;;5042658;28;20037;-65
2023/12/26 04:49:48;;;;;;;10.27;1.77;;;;;;;;;;5048730;28;20067;-65
2023/12/26 04:52:14;;;;;;;11.05;1.85;;;;;;;;;;5051837;28;20047;-65
2023/12/26 04:54:41;;;;;;;13.30;1.80;;;;;;;;;;5067899;28;20041;-65
2023/12/26 04:57:10;;;;;;;8.60;1.40;;;;;;;;;;5065718;28;20045;-65
2023/12/26 04:59:37;;;;;;;8.70;1.60;;;;;;;;;;5052900;28;20412;-65
2023/12/26 05:02:04;;;;;;;8.82;1.58;;;;;;;;;;5046566;28;20052;-65
2023/12/26 05:04:30;;;;;;;7.90;1.73;;;;;;;;;;5045689;28;20044;-65
2023/12/26 05:06:56;;;;;;;10.43;1.80;;;;;;;;;;5065037;28;20074;-64
2023/12/26 05:09:22;;;;;;;6.78;1.42;;;;;;;;;;5068090;28;20083;-64
2023/12/26 05:11:48;;;;;;;7.32;1.50;;;;;;;;;;5059495;28;20120;-65
2023/12/26 05:14:14;;;;;;;8.40;1.50;;;;;;;;;;5067769;28;20040;-65
2023/12/26 05:16:42;;;;;;;13.82;1.67;;;;;;;;;;5048495;28;20042;-65
2023/12/26 05:19:08;;;;;;;10.98;1.80;;;;;;;;;;5051965;28;20066;-65
2023/12/26 05:21:34;;;;;;;8.18;1.20;;;;;;;;;;5049658;28;20466;-65
2023/12/26 05:24:00;;;;;;;7.25;1.42;;;;;;;;;;5032786;28;20036;-65
2023/12/26 05:26:26;;;;;;;10.00;1.60;;;;;;;;;;5048009;28;20033;-65
2023/12/26 05:28:52;;;;;;;6.93;1.45;;;;;;;;;;5076787;22;20186;-68
2023/12/26 05:31:20;;;;;;;7.10;1.70;;;;;;;;;;5046614;28;20109;-68
2023/12/26 05:33:46;;;;;;;6.18;1.58;;;;;;;;;;5036982;28;20044;-67
2023/12/26 05:36:12;;;;;;;7.85;1.55;;;;;;;;;;5066641;28;20048;-65
2023/12/26 05:38:38;;;;;;;10.77;1.80;;;;;;;;;;5051592;28;20047;-66
2023/12/26 05:41:07;;;;;;;7.13;1.90;;;;;;;;;;5035746;28;20040;-65
2023/12/26 05:43:33;;;;;;;10.85;1.67;;;;;;;;;;5049254;28;20496;-65
2023/12/26 05:46:02;;;;;;;9.02;2.10;;;;;;;;;;5063936;28;20041;-65
2023/12/26 05:48:28;;;;;;;6.95;1.63;;;;;;;;;;5074811;28;20132;-65
2023/12/26 05:50:54;;;;;;;7.82;1.27;;;;;;;;;;5048113;28;20465;-67
2023/12/26 05:53:20;;;;;;;8.23;1.77;;;;;;;;;;5049294;28;20045;-66
2023/12/26 05:55:46;;;;;;;8.48;1.70;;;;;;;;;;5065225;28;20098;-66
2023/12/26 05:58:12;;;;;;;6.95;1.67;;;;;;;;;;5050630;28;20044;-66
2023/12/26 06:00:38;;;;;;;10.80;1.45;;;;;;;;;;5074225;28;20087;-66
2023/12/26 06:03:04;;;;;;;8.25;1.40;;;;;;;;;;5049573;28;20052;-67
2023/12/26 06:05:30;;;;;;;9.02;1.50;;;;;;;;;;5048908;28;20086;-67
2023/12/26 06:07:56;;;;;;;6.15;1.40;;;;;;;;;;5062670;28;20045;-67
2023/12/26 06:10:22;;;;;;;6.95;1.38;;;;;;;;;;5058567;28;20041;-67
2023/12/26 06:12:48;;;;;;;8.32;1.52;;;;;;;;;;5040038;28;20155;-67
2023/12/26 06:15:14;;;;;;;5.80;1.30;;;;;;;;;;5053993;28;20400;-67
2023/12/26 06:17:40;;;;;;;8.25;1.83;;;;;;;;;;5066180;28;20122;-67
2023/12/26 06:20:07;;;;;;;8.63;1.63;;;;;;;;;;5056246;28;20044;-66
2023/12/26 06:22:33;;;;;;;7.28;1.50;;;;;;;;;;5072161;28;20040;-66
2023/12/26 06:24:59;;;;;;;9.93;2.20;;;;;;;;;;5054294;28;20052;-67
2023/12/26 06:27:25;;;;;;;4.97;1.60;;;;;;;;;;5065904;28;20585;-67
2023/12/26 06:29:51;;;;;;;9.32;1.67;;;;;;;;;;5055278;28;20051;-67
2023/12/26 06:32:17;;;;;;;6.75;1.80;;;;;;;;;;5035516;28;20049;-67
2023/12/26 06:34:43;;;;;;;11.85;1.90;;;;;;;;;;5036208;28;20111;-67
2023/12/26 06:37:09;;;;;;;10.10;1.77;;;;;;;;;;5052932;28;20037;-67
2023/12/26 06:39:35;;;;;;;6.53;1.40;;;;;;;;;;5039058;28;20037;-67
2023/12/26 06:42:02;;;;;;;9.15;1.70;;;;;;;;;;5055180;28;20059;-67
2023/12/26 06:44:28;;;;;;;12.18;1.65;;;;;;;;;;5050164;28;20072;-67
2023/12/26 06:46:54;;;;;;;8.10;1.77;;;;;;;;;;5048166;28;20519;-67
2023/12/26 06:49:20;;;;;;;8.73;1.90;;;;;;;;;;5060540;28;20032;-67
2023/12/26 06:51:46;;;;;;;11.57;1.80;;;;;;;;;;5073017;28;20044;-67
2023/12/26 06:54:12;;;;;;;11.98;1.98;;;;;;;;;;5050640;28;20047;-67
2023/12/26 06:56:38;;;;;;;8.90;1.80;;;;;;;;;;5056906;28;20037;-66
2023/12/26 06:59:04;;;;;;;10.82;1.80;;;;;;;;;;5056601;28;20090;-67
2023/12/26 07:01:33;;;;;;;11.48;2.13;;;;;;;;;;5073157;28;20041;-67
2023/12/26 07:04:00;;;;;;;11.43;2.35;;;;;;;;;;5059485;28;20048;-67
2023/12/26 07:06:27;;;;;;;7.68;1.75;;;;;;;;;;5061145;28;20044;-67
2023/12/26 07:08:53;;;;;;;10.48;2.13;;;;;;;;;;5050609;28;20488;-67
2023/12/26 07:11:19;;;;;;;11.85;2.78;;;;;;;;;;5064720;28;20036;-67
2023/12/26 07:13:45;;;;;;;11.77;1.80;;;;;;;;;;5056033;28;20047;-67
2023/12/26 07:16:11;;;;;;;9.25;1.98;;;;;;;;;;5064750;28;20404;-67
2023/12/26 07:18:37;;;;;;;8.70;2.22;;;;;;;;;;5047282;28;20045;-67
2023/12/26 07:21:03;;;;;;;11.02;2.20;;;;;;;;;;5047531;28;20105;-66
2023/12/26 07:23:29;;;;;;;7.70;1.88;;;;;;;;;;5042715;28;20041;-67
2023/12/26 07:25:55;;;;;;;12.73;2.13;;;;;;;;;;5063276;28;20086;-66
2023/12/26 07:28:21;;;;;;;11.35;1.75;;;;;;;;;;5057222;28;20039;-66
2023/12/26 07:30:47;;;;;;;9.02;2.20;;;;;;;;;;5044776;28;20483;-66
2023/12/26 07:33:13;;;;;;;12.20;1.80;;;;;;;;;;5042647;28;20050;-66
2023/12/26 07:35:39;;;;;;;11.15;2.00;;;;;;;;;;5060809;28;20041;-67
2023/12/26 07:38:05;;;;;;;9.82;1.85;;;;;;;;;;5043673;28;20439;-66
2023/12/26 07:40:32;;;;;;;8.35;2.03;;;;;;;;;;5050157;28;20142;-66
2023/12/26 07:42:58;;;;;;;10.25;1.77;;;;;;;;;;5038213;28;20043;-66
2023/12/26 07:45:25;;;;;;;13.02;2.15;;;;;;;;;;5038307;28;20047;-66
2023/12/26 07:47:51;;;;;;;13.57;2.72;;;;;;;;;;5060218;28;20094;-66
2023/12/26 07:50:17;;;;;;;10.25;2.15;;;;;;;;;;5063659;28;20123;-66
2023/12/26 07:52:43;;;;;;;11.32;2.03;;;;;;;;;;5032912;28;20047;-66
2023/12/26 07:55:11;;;;;;;10.77;2.00;;;;;;;;;;5033588;28;20036;-66
2023/12/26 07:57:37;;;;;;;12.40;1.88;;;;;;;;;;5055551;28;20450;-66
2023/12/26 08:00:03;;;;;;;11.80;2.58;;;;;;;;;;5057680;28;20067;-66
2023/12/26 08:02:29;;;;;;;9.35;1.83;;;;;;;;;;5034096;28;20048;-66
2023/12/26 08:04:55;;;;;;;13.77;2.40;;;;;;;;;;5037642;28;20549;-66
2023/12/26 08:07:22;;;;;;;17.35;2.95;;;;;;;;;;5029854;28;20048;-69
2023/12/26 08:09:48;;;;;;;9.70;2.05;;;;;;;;;;5041422;28;20045;-69
2023/12/26 08:12:14;;;;;;;11.60;2.17;;;;;;;;;;5036031;28;20083;-69
2023/12/26 08:14:40;;;;;;;8.98;1.98;;;;;;;;;;5039544;28;20060;-69
2023/12/26 08:17:06;;;;;;;18.42;2.30;;;;;;;;;;5040791;28;20040;-69
2023/12/26 08:19:32;;;;;;;6.78;1.58;;;;;;;;;;5047646;28;20040;-69
2023/12/26 08:21:58;;;;;;;12.85;2.15;;;;;;;;;;5058506;28;22420;-69
2023/12/26 08:24:24;;;;;;;12.27;2.17;;;;;;;;;;5017890;28;20036;-69
2023/12/26 08:26:53;;;;;;;10.35;2.22;;;;;;;;;;5045740;28;20139;-69
2023/12/26 08:29:19;;;;;;;10.52;2.17;;;;;;;;;;5057613;28;20032;-69
2023/12/26 08:31:45;;;;;;;13.95;2.10;;;;;;;;;;5043540;28;20052;-69
2023/12/26 08:34:11;;;;;;;12.30;2.22;;;;;;;;;;5058734;28;20029;-72
2023/12/26 08:36:37;;;;;;;14.70;2.70;;;;;;;;;;5048029;28;20044;-70
2023/12/26 08:39:03;;;;;;;11.50;2.28;;;;;;;;;;5060472;28;20512;-70
2023/12/26 08:41:29;;;;;;;10.73;1.80;;;;;;;;;;5055450;28;20138;-69
2023/12/26 08:43:55;;;;;;;11.82;1.95;;;;;;;;;;5058409;28;20398;-68
2023/12/26 08:46:21;;;;;;;17.38;2.25;;;;;;;;;;5040160;28;20041;-70
2023/12/26 08:48:47;;;;;;;14.00;2.13;;;;;;;;;;5045675;28;20055;-70
2023/12/26 08:51:14;;;;;;;12.98;2.00;;;;;;;;;;5060264;28;20052;-70
2023/12/26 08:53:40;;;;;;;7.05;2.00;;;;;;;;;;5045185;28;20051;-69
2023/12/26 08:56:06;;;;;;;9.85;1.88;;;;;;;;;;5048704;28;20040;-70
2023/12/26 08:58:32;;;;;;;12.93;2.13;;;;;;;;;;5062522;28;20039;-71
2023/12/26 09:01:00;;;;;;;12.05;2.10;;;;;;;;;;5031464;28;20048;-71
2023/12/26 09:03:26;;;;;;;8.38;2.00;;;;;;;;;;5058677;28;20111;-75
2023/12/26 09:05:52;;;;;;;14.77;1.98;;;;;;;;;;5047013;28;20048;-72
2023/12/26 09:08:18;;;;;;;11.95;2.08;;;;;;;;;;5040706;28;20127;-71
2023/12/26 09:10:44;;;;;;;12.13;2.40;;;;;;;;;;5062544;28;20525;-71
2023/12/26 09:13:11;;;;;;;11.90;2.15;;;;;;;;;;5052959;28;20064;-71
2023/12/26 09:15:37;;;;;;;11.65;2.40;;;;;;;;;;5062756;28;20063;-71
2023/12/26 09:18:03;;;;;;;12.98;2.63;;;;;;;;;;5073115;28;20040;-73
2023/12/26 09:20:29;;;;;;;11.32;2.13;;;;;;;;;;5070944;28;20047;-73
2023/12/26 09:22:55;;;;;;;12.98;2.35;;;;;;;;;;5047522;28;20053;-72
2023/12/26 09:25:21;;;;;;;11.27;2.03;;;;;;;;;;5067994;28;20040;-72
2023/12/26 09:27:47;;;;;;;13.25;2.42;;;;;;;;;;5071598;28;20052;-73
2023/12/26 09:30:13;;;;;;;12.38;2.63;;;;;;;;;;5072871;28;20043;-73
2023/12/26 09:32:39;;;;;;;12.63;2.63;;;;;;;;;;5038553;28;20110;-73
2023/12/26 09:35:05;;;;;;;15.68;2.58;;;;;;;;;;5052559;28;20078;-73
2023/12/26 09:37:38;;;;;;;16.75;2.50;;;;;;;;;;5070523;28;20033;-72
2023/12/26 09:40:05;;;;;;;13.55;2.40;;;;;;;;;;5056521;28;20072;-73
2023/12/26 09:42:31;;;;;;;15.05;2.53;;;;;;;;;;5037803;28;20091;-72
2023/12/26 09:44:57;;;;;;;14.38;2.40;;;;;;;;;;5074308;28;20068;-73
2023/12/26 09:47:23;;;;;;;13.18;2.30;;;;;;;;;;5074811;28;20036;-73
2023/12/26 09:49:50;;;;;;;13.80;2.50;;;;;;;;;;5067482;28;20041;-74
2023/12/26 09:52:16;;;;;;;12.15;2.42;;;;;;;;;;5046966;28;20078;-73
2023/12/26 09:54:44;;;;;;;12.82;2.47;;;;;;;;;;5065904;28;20513;-73
2023/12/26 09:57:10;;;;;;;20.98;3.40;;;;;;;;;;5054834;28;20464;-73
2023/12/26 09:59:37;;;;;;;13.40;2.55;;;;;;;;;;5065592;28;20040;-73
2023/12/26 10:02:03;;;;;;;10.73;2.25;;;;;;;;;;5073904;28;20461;-72
2023/12/26 10:04:29;;;;;;;8.77;2.58;;;;;;;;;;5048682;28;20503;-72
2023/12/26 10:06:55;;;;;;;13.77;2.08;;;;;;;;;;5057636;28;20036;-73
2023/12/26 10:09:21;;;;;;;11.95;2.67;;;;;;;;;;5052871;28;20545;-72
2023/12/26 10:11:47;;;;;;;9.45;2.30;;;;;;;;;;5058830;28;20083;-73
2023/12/26 10:14:27;;;;;;;11.35;2.15;;;;;;;;;;5049262;28;20036;-73
2023/12/26 10:16:55;;;;;;;9.17;2.23;;;;;;;;;;5062476;28;20133;-72
2023/12/26 10:19:21;;;;;;;11.43;2.60;;;;;;;;;;5050151;28;20045;-74
2023/12/26 10:21:47;;;;;;;15.55;2.72;;;;;;;;;;5067158;28;20091;-72
2023/12/26 10:24:13;;;;;;;13.00;2.58;;;;;;;;;;5035127;28;20036;-72
2023/12/26 10:26:39;;;;;;;11.82;2.75;;;;;;;;;;5066433;28;20043;-73
2023/12/26 10:29:05;;;;;;;12.70;2.50;;;;;;;;;;5071833;28;20044;-73
2023/12/26 10:31:31;;;;;;;15.02;2.20;;;;;;;;;;5073392;28;20415;-73
2023/12/26 10:33:57;;;;;;;15.52;2.45;;;;;;;;;;5066937;28;20044;-73
2023/12/26 10:36:23;;;;;;;15.68;2.83;;;;;;;;;;5060955;28;20040;-72
2023/12/26 10:38:49;;;;;;;14.77;2.40;;;;;;;;;;5053629;28;20036;-72
2023/12/26 10:41:27;;;;;;;16.30;3.08;;;;;;;;;;5044483;28;20041;-73
2023/12/26 10:43:56;;;;;;;14.07;2.08;;;;;;;;;;5035691;28;20248;-72
2023/12/26 10:46:23;;;;;;;11.13;2.13;;;;;;;;;;5040410;28;20417;-73
2023/12/26 10:48:49;;;;;;;10.52;1.80;;;;;;;;;;5061512;28;20124;-73
2023/12/26 10:51:16;;;;;;;16.02;2.25;;;;;;;;;;5060094;28;20044;-73
2023/12/26 10:53:47;;;;;;;16.02;2.58;;;;;;;;;;5055262;28;20492;-72
2023/12/26 10:56:13;;;;;;;15.00;2.15;;;;;;;;;;5064833;28;20044;-73
2023/12/26 10:58:40;;;;;;;10.07;3.08;;;;;;;;;;5062088;28;20048;-72
2023/12/26 11:01:07;;;;;;;16.40;2.45;;;;;;;;;;5047271;28;20595;-73
2023/12/26 11:03:33;;;;;;;13.45;2.50;;;;;;;;;;5069738;28;20070;-72
2023/12/26 11:05:59;;;;;;;13.25;2.50;;;;;;;;;;5069149;28;20595;-72
2023/12/26 11:08:26;;;;;;;14.25;2.40;;;;;;;;;;5064277;28;20043;-72
2023/12/26 11:10:52;;;;;;;14.93;2.63;;;;;;;;;;5047110;28;20076;-72
2023/12/26 11:13:18;;;;;;;13.65;2.60;;;;;;;;;;5067485;28;20133;-75
2023/12/26 11:15:45;;;;;;;15.63;3.10;;;;;;;;;;5038241;28;20041;-72
2023/12/26 11:18:11;;;;;;;14.35;2.60;;;;;;;;;;5048231;28;20427;-73
2023/12/26 11:20:38;;;;;;;14.52;2.80;;;;;;;;;;5038471;28;20051;-72
2023/12/26 11:23:04;;;;;;;14.45;2.92;;;;;;;;;;5072803;28;20472;-72
2023/12/26 11:25:30;;;;;;;13.57;2.20;;;;;;;;;;5054467;28;20080;-73
2023/12/26 11:30:28;;;;;;;11.98;2.50;;;;;;;;;;5075241;28;20076;-66
2023/12/26 11:32:56;;;;;;;12.18;2.28;;;;;;;;;;5067133;28;20068;-66
2023/12/26 11:35:22;;;;;;;14.38;3.55;;;;;;;;;;5070528;28;20113;-66
2023/12/26 11:37:50;;;;;;;8.27;2.10;;;;;;;;;;5079658;28;20040;-66
2023/12/26 11:40:16;;;;;;;11.15;2.63;;;;;;;;;;5059013;28;20442;-66
2023/12/26 11:42:42;;;;;;;12.52;2.22;;;;;;;;;;5063434;28;20036;-66
2023/12/26 11:45:08;;;;;;;15.38;1.88;;;;;;;;;;5067102;28;20452;-66
2023/12/26 11:47:34;;;;;;;20.30;2.92;;;;;;;;;;5070032;28;20086;-66
2023/12/26 11:50:00;;;;;;;10.90;2.40;;;;;;;;;;5089580;28;20040;-66
2023/12/26 11:52:26;;;;;;;11.52;2.13;;;;;;;;;;5087313;28;20032;-67
2023/12/26 11:54:52;;;;;;;11.10;2.40;;;;;;;;;;5069557;28;20040;-66
2023/12/26 11:57:18;;;;;;;13.13;2.88;;;;;;;;;;5072953;28;20442;-66
2023/12/26 11:59:44;;;;;;;10.57;2.10;;;;;;;;;;5071208;28;20097;-66
2023/12/26 12:02:10;;;;;;;13.77;2.50;;;;;;;;;;5090005;28;20048;-66
2023/12/26 12:04:36;;;;;;;10.52;2.78;;;;;;;;;;5071723;28;20488;-66
2023/12/26 12:07:12;;;;;;;14.13;2.50;;;;;;;;;;5068243;28;20032;-66
2023/12/26 12:09:38;;;;;;;15.55;2.53;;;;;;;;;;5073070;28;20424;-66
2023/12/26 12:12:04;;;;;;;9.00;2.10;;;;;;;;;;5073183;28;20039;-66
2023/12/26 12:14:30;;;;;;;12.57;2.30;;;;;;;;;;5087409;28;20055;-66
2023/12/26 12:17:02;;;;;;;9.13;1.63;;;;;;;;;;5071504;28;20492;-66
2023/12/26 12:19:29;;;;;;;13.07;2.25;;;;;;;;;;5069088;28;20036;-66
2023/12/26 12:21:55;;;;;;;12.38;2.63;;;;;;;;;;5064589;28;20403;-66
2023/12/26 12:24:21;;;;;;;13.02;2.28;;;;;;;;;;5069121;28;20055;-66
2023/12/26 12:27:16;;;;;;;15.18;2.40;;;;;;;;;;5072870;28;20048;-66
2023/12/26 12:30:00;;;;;;;10.35;2.20;;;;;;;;;;5052736;28;20080;-66
2023/12/26 12:32:32;;;;;;;12.32;2.15;;;;;;;;;;5070633;28;20346;-66
2023/12/26 12:35:18;;;;;;;10.88;2.10;;;;;;;;;;5087541;28;20092;-66
2023/12/26 12:37:47;;;;;;;11.15;2.17;;;;;;;;;;5062821;28;20033;-66
2023/12/26 12:40:14;;;;;;;11.25;2.45;;;;;;;;;;5072514;28;20051;-66
2023/12/26 12:42:40;;;;;;;9.20;2.15;;;;;;;;;;5072511;28;20051;-66
2023/12/26 12:45:06;;;;;;;8.98;1.63;;;;;;;;;;5061381;28;20044;-66
2023/12/26 12:47:32;;;;;;;8.70;1.98;;;;;;;;;;5084545;28;20453;-66
2023/12/26 12:49:58;;;;;;;9.82;1.98;;;;;;;;;;5090545;28;20131;-66
2023/12/26 12:52:25;;;;;;;12.13;1.95;;;;;;;;;;5064316;28;20044;-66
2023/12/26 12:54:51;;;;;;;10.82;2.05;;;;;;;;;;5062000;28;20044;-66
2023/12/26 12:57:17;;;;;;;10.35;1.75;;;;;;;;;;5090445;28;20028;-66
2023/12/26 12:59:43;;;;;;;9.88;2.10;;;;;;;;;;5064970;28;20044;-66
2023/12/26 13:02:14;;;;;;;10.20;1.67;;;;;;;;;;5072113;28;20048;-67
2023/12/26 13:04:41;;;;;;;8.82;1.90;;;;;;;;;;5089937;28;20076;-66
2023/12/26 13:07:08;;;;;;;9.48;1.90;;;;;;;;;;5070375;28;20036;-66
2023/12/26 13:09:34;;;;;;;14.25;2.38;;;;;;;;;;5068289;28;20057;-66
2023/12/26 13:12:00;;;;;;;13.32;2.83;;;;;;;;;;5082564;28;20484;-66
2023/12/26 13:14:26;;;;;;;9.60;2.25;;;;;;;;;;5063349;28;20043;-66
2023/12/26 13:16:52;;;;;;;16.73;2.65;;;;;;;;;;5090350;28;20036;-66
2023/12/26 13:19:18;;;;;;;11.93;2.42;;;;;;;;;;5067740;28;20051;-66
2023/12/26 13:21:44;;;;;;;9.02;1.85;;;;;;;;;;5064222;28;20056;-66
2023/12/26 13:24:21;;;;;;;9.88;2.30;;;;;;;;;;5089750;28;20048;-66
2023/12/26 13:26:47;;;;;;;10.45;2.30;;;;;;;;;;5088548;28;20119;-66
2023/12/26 13:29:25;;;;;;;10.70;2.40;;;;;;;;;;5085152;28;20084;-66
2023/12/26 13:31:51;;;;;;;13.95;2.25;;;;;;;;;;5066214;28;20069;-66
2023/12/26 13:34:27;;;;;;;12.93;2.60;;;;;;;;;;5090078;28;20043;-65
2023/12/26 13:36:53;;;;;;;11.95;2.35;;;;;;;;;;5068079;28;20129;-66
2023/12/26 13:39:20;;;;;;;10.68;2.08;;;;;;;;;;5087178;28;20069;-66
2023/12/26 13:41:46;;;;;;;15.18;2.53;;;;;;;;;;5066080;28;20041;-66
2023/12/26 13:44:15;;;;;;;11.88;2.60;;;;;;;;;;5077563;28;20055;-66
2023/12/26 13:46:41;;;;;;;11.07;2.30;;;;;;;;;;5082490;28;20093;-66
2023/12/26 13:49:07;;;;;;;16.27;2.50;;;;;;;;;;5064658;28;20404;-66
2023/12/26 13:51:33;;;;;;;17.73;3.22;;;;;;;;;;5071525;28;20055;-66
2023/12/26 13:53:59;;;;;;;14.30;2.30;;;;;;;;;;5070891;28;20549;-66
2023/12/26 13:56:25;;;;;;;9.60;2.28;;;;;;;;;;5073877;28;20118;-66
2023/12/26 13:58:51;;;;;;;9.63;2.33;;;;;;;;;;5090391;28;20032;-66
2023/12/26 14:01:18;;;;;;;8.98;1.90;;;;;;;;;;5068896;28;20035;-66
2023/12/26 14:03:49;;;;;;;11.35;1.88;;;;;;;;;;5074731;28;20061;-66
2023/12/26 14:06:26;;;;;;;8.05;1.95;;;;;;;;;;5091509;28;20508;-66
2023/12/26 14:08:52;;;;;;;11.25;1.60;;;;;;;;;;5093162;28;20040;-66
2023/12/26 14:11:18;;;;;;;8.90;1.50;;;;;;;;;;5087626;28;20064;-65
2023/12/26 14:13:44;;;;;;;10.30;1.90;;;;;;;;;;5074574;28;20044;-66
2023/12/26 14:16:10;;;;;;;6.15;1.23;;;;;;;;;;5093542;28;20126;-66
2023/12/26 14:18:36;;;;;;;10.38;1.40;;;;;;;;;;5065629;28;20128;-66
2023/12/26 14:21:03;;;;;;;6.22;1.67;;;;;;;;;;5072721;28;20552;-66
2023/12/26 14:23:29;;;;;;;3.53;0.80;;;;;;;;;;5069023;28;20087;-66
2023/12/26 14:25:56;;;;;;;9.02;2.13;;;;;;;;;;5090337;28;20035;-66
2023/12/26 14:28:22;;;;;;;2.42;0.70;;;;;;;;;;5081342;28;20040;-66
2023/12/26 14:30:48;;;;;;;12.35;7.45;;;;;;;;;;5080102;28;20040;-66
2023/12/26 14:33:20;;;;;;;5.10;0.90;;;;;;;;;;5091678;28;20032;-66
2023/12/26 14:35:50;;;;;;;3.08;0.75;;;;;;;;;;5071923;28;20059;-66